sensor_id;sensor_type;location;lat;lon;timestamp;P1;durP1;ratioP1;P2;durP2;ratioP2
28802;SDS011;15949;55.656;37.422;2023-03-21T00:02:27;8.07;;;4.47;;
28802;SDS011;15949;55.656;37.422;2023-03-21T00:07:33;9.93;;;4.72;;
28802;SDS011;15949;55.656;37.422;2023-03-21T00:12:38;10.75;;;4.13;;
28802;SDS011;15949;55.656;37.422;2023-03-21T00:17:44;9.18;;;4.43;;
28802;SDS011;15949;55.656;37.422;2023-03-21T00:22:50;9.18;;;4.55;;
28802;SDS011;15949;55.656;37.422;2023-03-21T00:27:56;9.25;;;4.30;;
28802;SDS011;15949;55.656;37.422;2023-03-21T00:33:01;8.45;;;4.18;;
28802;SDS011;15949;55.656;37.422;2023-03-21T00:38:08;10.98;;;4.20;;
28802;SDS011;15949;55.656;37.422;2023-03-21T00:43:14;11.32;;;4.05;;
28802;SDS011;15949;55.656;37.422;2023-03-21T00:48:27;11.00;;;4.40;;
28802;SDS011;15949;55.656;37.422;2023-03-21T00:53:33;10.48;;;4.05;;
28802;SDS011;15949;55.656;37.422;2023-03-21T00:58:39;8.30;;;4.82;;
28802;SDS011;15949;55.656;37.422;2023-03-21T01:03:45;10.63;;;4.88;;
28802;SDS011;15949;55.656;37.422;2023-03-21T01:08:55;8.98;;;4.63;;
28802;SDS011;15949;55.656;37.422;2023-03-21T01:14:01;10.20;;;4.72;;
28802;SDS011;15949;55.656;37.422;2023-03-21T01:19:07;8.85;;;5.10;;
28802;SDS011;15949;55.656;37.422;2023-03-21T01:24:13;11.35;;;5.25;;
28802;SDS011;15949;55.656;37.422;2023-03-21T01:29:19;14.55;;;5.15;;
28802;SDS011;15949;55.656;37.422;2023-03-21T01:34:25;13.35;;;5.38;;
28802;SDS011;15949;55.656;37.422;2023-03-21T01:39:33;11.00;;;5.38;;
28802;SDS011;15949;55.656;37.422;2023-03-21T01:50:01;16.25;;;5.55;;
28802;SDS011;15949;55.656;37.422;2023-03-21T01:55:09;11.32;;;6.10;;
28802;SDS011;15949;55.656;37.422;2023-03-21T02:00:17;10.97;;;5.80;;
28802;SDS011;15949;55.656;37.422;2023-03-21T02:11:20;13.32;;;6.35;;
28802;SDS011;15949;55.656;37.422;2023-03-21T02:27:11;13.10;;;6.65;;
28802;SDS011;15949;55.656;37.422;2023-03-21T02:48:30;12.60;;;6.30;;
28802;SDS011;15949;55.656;37.422;2023-03-21T02:53:43;13.48;;;6.30;;
28802;SDS011;15949;55.656;37.422;2023-03-21T02:58:53;16.38;;;6.35;;
28802;SDS011;15949;55.656;37.422;2023-03-21T03:03:59;10.02;;;6.65;;
28802;SDS011;15949;55.656;37.422;2023-03-21T03:14:49;11.15;;;6.30;;
28802;SDS011;15949;55.656;37.422;2023-03-21T03:25:48;11.57;;;6.60;;
28802;SDS011;15949;55.656;37.422;2023-03-21T03:30:57;17.38;;;7.35;;
28802;SDS011;15949;55.656;37.422;2023-03-21T03:36:04;14.43;;;6.45;;
28802;SDS011;15949;55.656;37.422;2023-03-21T03:41:18;16.27;;;7.65;;
28802;SDS011;15949;55.656;37.422;2023-03-21T03:46:31;15.70;;;7.38;;
28802;SDS011;15949;55.656;37.422;2023-03-21T03:56:58;14.73;;;7.27;;
28802;SDS011;15949;55.656;37.422;2023-03-21T04:02:05;19.05;;;7.30;;
28802;SDS011;15949;55.656;37.422;2023-03-21T04:07:11;13.40;;;7.90;;
28802;SDS011;15949;55.656;37.422;2023-03-21T04:12:17;14.40;;;7.95;;
28802;SDS011;15949;55.656;37.422;2023-03-21T04:17:22;17.63;;;10.02;;
28802;SDS011;15949;55.656;37.422;2023-03-21T04:22:28;21.38;;;10.40;;
28802;SDS011;15949;55.656;37.422;2023-03-21T04:27:34;20.52;;;10.48;;
28802;SDS011;15949;55.656;37.422;2023-03-21T04:32:39;18.77;;;9.88;;
28802;SDS011;15949;55.656;37.422;2023-03-21T04:37:45;23.45;;;10.63;;
28802;SDS011;15949;55.656;37.422;2023-03-21T04:42:51;14.20;;;9.75;;
28802;SDS011;15949;55.656;37.422;2023-03-21T04:47:57;17.70;;;10.30;;
28802;SDS011;15949;55.656;37.422;2023-03-21T04:53:03;20.58;;;9.07;;
28802;SDS011;15949;55.656;37.422;2023-03-21T04:58:08;15.52;;;8.73;;
28802;SDS011;15949;55.656;37.422;2023-03-21T05:03:14;14.23;;;8.20;;
28802;SDS011;15949;55.656;37.422;2023-03-21T05:08:23;17.15;;;8.60;;
28802;SDS011;15949;55.656;37.422;2023-03-21T05:13:29;18.25;;;8.93;;
28802;SDS011;15949;55.656;37.422;2023-03-21T05:18:35;14.23;;;8.63;;
28802;SDS011;15949;55.656;37.422;2023-03-21T05:23:42;14.05;;;8.35;;
28802;SDS011;15949;55.656;37.422;2023-03-21T05:28:48;13.40;;;8.40;;
28802;SDS011;15949;55.656;37.422;2023-03-21T05:33:54;13.73;;;7.88;;
28802;SDS011;15949;55.656;37.422;2023-03-21T05:39:00;18.15;;;8.63;;
28802;SDS011;15949;55.656;37.422;2023-03-21T05:44:06;18.77;;;8.65;;
28802;SDS011;15949;55.656;37.422;2023-03-21T05:49:12;16.15;;;8.88;;
28802;SDS011;15949;55.656;37.422;2023-03-21T05:54:18;13.20;;;8.25;;
28802;SDS011;15949;55.656;37.422;2023-03-21T05:59:23;20.70;;;8.90;;
28802;SDS011;15949;55.656;37.422;2023-03-21T06:04:29;16.45;;;8.73;;
28802;SDS011;15949;55.656;37.422;2023-03-21T06:09:35;15.45;;;9.10;;
28802;SDS011;15949;55.656;37.422;2023-03-21T06:14:40;20.35;;;9.00;;
28802;SDS011;15949;55.656;37.422;2023-03-21T06:19:46;15.05;;;8.57;;
28802;SDS011;15949;55.656;37.422;2023-03-21T06:24:52;17.42;;;9.15;;
28802;SDS011;15949;55.656;37.422;2023-03-21T06:29:58;18.02;;;8.77;;
28802;SDS011;15949;55.656;37.422;2023-03-21T06:35:03;17.50;;;8.90;;
28802;SDS011;15949;55.656;37.422;2023-03-21T06:40:09;15.10;;;9.00;;
28802;SDS011;15949;55.656;37.422;2023-03-21T06:45:15;18.85;;;9.80;;
28802;SDS011;15949;55.656;37.422;2023-03-21T06:50:21;19.73;;;10.40;;
28802;SDS011;15949;55.656;37.422;2023-03-21T06:55:27;17.00;;;9.02;;
28802;SDS011;15949;55.656;37.422;2023-03-21T07:00:33;16.05;;;9.30;;
28802;SDS011;15949;55.656;37.422;2023-03-21T07:05:39;17.70;;;9.50;;
28802;SDS011;15949;55.656;37.422;2023-03-21T07:10:45;15.98;;;9.93;;
28802;SDS011;15949;55.656;37.422;2023-03-21T07:15:51;17.95;;;10.45;;
28802;SDS011;15949;55.656;37.422;2023-03-21T07:20:58;20.15;;;10.07;;
28802;SDS011;15949;55.656;37.422;2023-03-21T07:26:04;17.92;;;11.18;;
28802;SDS011;15949;55.656;37.422;2023-03-21T07:31:11;18.85;;;9.93;;
28802;SDS011;15949;55.656;37.422;2023-03-21T07:36:18;15.80;;;9.25;;
28802;SDS011;15949;55.656;37.422;2023-03-21T07:41:25;16.02;;;10.15;;
28802;SDS011;15949;55.656;37.422;2023-03-21T07:46:31;19.67;;;10.30;;
28802;SDS011;15949;55.656;37.422;2023-03-21T07:51:37;20.70;;;10.38;;
28802;SDS011;15949;55.656;37.422;2023-03-21T07:56:42;15.20;;;10.25;;
28802;SDS011;15949;55.656;37.422;2023-03-21T08:01:48;15.40;;;10.70;;
28802;SDS011;15949;55.656;37.422;2023-03-21T08:06:54;17.50;;;10.80;;
28802;SDS011;15949;55.656;37.422;2023-03-21T08:11:59;16.75;;;10.98;;
28802;SDS011;15949;55.656;37.422;2023-03-21T08:17:05;16.42;;;9.63;;
28802;SDS011;15949;55.656;37.422;2023-03-21T08:22:11;16.05;;;9.30;;
28802;SDS011;15949;55.656;37.422;2023-03-21T08:27:16;12.25;;;9.48;;
28802;SDS011;15949;55.656;37.422;2023-03-21T08:32:22;14.90;;;8.95;;
28802;SDS011;15949;55.656;37.422;2023-03-21T08:37:33;12.57;;;8.90;;
28802;SDS011;15949;55.656;37.422;2023-03-21T08:42:40;10.60;;;7.70;;
28802;SDS011;15949;55.656;37.422;2023-03-21T08:47:46;10.73;;;8.20;;
28802;SDS011;15949;55.656;37.422;2023-03-21T08:52:52;10.25;;;7.38;;
28802;SDS011;15949;55.656;37.422;2023-03-21T08:57:58;12.98;;;8.23;;
28802;SDS011;15949;55.656;37.422;2023-03-21T09:03:04;13.65;;;7.15;;
28802;SDS011;15949;55.656;37.422;2023-03-21T09:08:09;10.02;;;7.32;;
28802;SDS011;15949;55.656;37.422;2023-03-21T09:13:17;10.02;;;7.35;;
28802;SDS011;15949;55.656;37.422;2023-03-21T09:18:22;13.05;;;7.03;;
28802;SDS011;15949;55.656;37.422;2023-03-21T09:23:49;14.60;;;10.25;;
28802;SDS011;15949;55.656;37.422;2023-03-21T09:28:57;8.13;;;5.93;;
28802;SDS011;15949;55.656;37.422;2023-03-21T09:34:03;6.75;;;4.97;;
28802;SDS011;15949;55.656;37.422;2023-03-21T09:39:09;8.25;;;5.35;;
28802;SDS011;15949;55.656;37.422;2023-03-21T09:44:22;8.30;;;5.22;;
28802;SDS011;15949;55.656;37.422;2023-03-21T09:49:37;10.63;;;6.70;;
28802;SDS011;15949;55.656;37.422;2023-03-21T09:54:47;11.55;;;6.03;;
28802;SDS011;15949;55.656;37.422;2023-03-21T09:59:53;9.45;;;6.18;;
28802;SDS011;15949;55.656;37.422;2023-03-21T10:05:10;8.20;;;5.17;;
28802;SDS011;15949;55.656;37.422;2023-03-21T10:10:30;9.38;;;5.80;;
28802;SDS011;15949;55.656;37.422;2023-03-21T10:15:41;7.03;;;5.35;;
28802;SDS011;15949;55.656;37.422;2023-03-21T10:20:46;8.95;;;4.65;;
28802;SDS011;15949;55.656;37.422;2023-03-21T10:25:54;7.93;;;5.03;;
28802;SDS011;15949;55.656;37.422;2023-03-21T10:31:05;7.45;;;5.07;;
28802;SDS011;15949;55.656;37.422;2023-03-21T10:36:15;7.22;;;5.13;;
28802;SDS011;15949;55.656;37.422;2023-03-21T10:41:24;8.85;;;5.68;;
28802;SDS011;15949;55.656;37.422;2023-03-21T10:46:30;6.45;;;5.28;;
28802;SDS011;15949;55.656;37.422;2023-03-21T10:51:36;7.65;;;5.43;;
28802;SDS011;15949;55.656;37.422;2023-03-21T10:56:53;7.20;;;4.25;;
28802;SDS011;15949;55.656;37.422;2023-03-21T11:02:01;5.85;;;3.88;;
28802;SDS011;15949;55.656;37.422;2023-03-21T11:07:10;8.27;;;5.90;;
28802;SDS011;15949;55.656;37.422;2023-03-21T11:12:27;8.70;;;5.82;;
28802;SDS011;15949;55.656;37.422;2023-03-21T11:17:34;6.97;;;3.78;;
28802;SDS011;15949;55.656;37.422;2023-03-21T11:22:41;5.47;;;3.60;;
28802;SDS011;15949;55.656;37.422;2023-03-21T11:27:48;6.60;;;3.88;;
28802;SDS011;15949;55.656;37.422;2023-03-21T11:32:58;6.93;;;3.42;;
28802;SDS011;15949;55.656;37.422;2023-03-21T11:38:22;3.92;;;2.97;;
28802;SDS011;15949;55.656;37.422;2023-03-21T11:43:34;4.90;;;3.42;;
28802;SDS011;15949;55.656;37.422;2023-03-21T11:48:42;6.32;;;3.50;;
28802;SDS011;15949;55.656;37.422;2023-03-21T11:59:30;4.10;;;2.90;;
28802;SDS011;15949;55.656;37.422;2023-03-21T12:04:51;4.60;;;3.20;;
28802;SDS011;15949;55.656;37.422;2023-03-21T12:25:53;6.10;;;3.30;;
28802;SDS011;15949;55.656;37.422;2023-03-21T12:31:09;5.15;;;2.80;;
28802;SDS011;15949;55.656;37.422;2023-03-21T12:41:55;5.38;;;3.60;;
28802;SDS011;15949;55.656;37.422;2023-03-21T12:47:08;7.28;;;3.72;;
28802;SDS011;15949;55.656;37.422;2023-03-21T12:52:20;5.68;;;3.40;;
28802;SDS011;15949;55.656;37.422;2023-03-21T12:57:31;6.32;;;3.55;;
28802;SDS011;15949;55.656;37.422;2023-03-21T13:02:42;6.85;;;3.38;;
28802;SDS011;15949;55.656;37.422;2023-03-21T13:24:17;6.85;;;3.83;;
28802;SDS011;15949;55.656;37.422;2023-03-21T13:29:49;8.65;;;3.80;;
28802;SDS011;15949;55.656;37.422;2023-03-21T13:34:57;8.15;;;3.97;;
28802;SDS011;15949;55.656;37.422;2023-03-21T13:40:07;5.13;;;3.80;;
28802;SDS011;15949;55.656;37.422;2023-03-21T13:45:33;8.35;;;4.18;;
28802;SDS011;15949;55.656;37.422;2023-03-21T13:50:51;6.43;;;3.80;;
28802;SDS011;15949;55.656;37.422;2023-03-21T13:56:08;6.10;;;3.75;;
28802;SDS011;15949;55.656;37.422;2023-03-21T14:01:35;6.10;;;3.78;;
28802;SDS011;15949;55.656;37.422;2023-03-21T14:06:48;6.38;;;4.07;;
28802;SDS011;15949;55.656;37.422;2023-03-21T14:11:59;22.15;;;14.52;;
28802;SDS011;15949;55.656;37.422;2023-03-21T14:22:18;7.97;;;3.97;;
28802;SDS011;15949;55.656;37.422;2023-03-21T14:27:24;23.90;;;13.15;;
28802;SDS011;15949;55.656;37.422;2023-03-21T14:32:35;8.60;;;5.57;;
28802;SDS011;15949;55.656;37.422;2023-03-21T14:37:41;13.23;;;6.03;;
28802;SDS011;15949;55.656;37.422;2023-03-21T14:42:51;8.80;;;5.13;;
28802;SDS011;15949;55.656;37.422;2023-03-21T14:53:06;14.10;;;7.47;;
28802;SDS011;15949;55.656;37.422;2023-03-21T14:58:16;6.65;;;4.10;;
28802;SDS011;15949;55.656;37.422;2023-03-21T15:03:23;10.52;;;4.70;;
28802;SDS011;15949;55.656;37.422;2023-03-21T15:08:31;9.05;;;4.32;;
28802;SDS011;15949;55.656;37.422;2023-03-21T15:18:49;8.13;;;5.45;;
28802;SDS011;15949;55.656;37.422;2023-03-21T15:24:01;9.60;;;5.10;;
28802;SDS011;15949;55.656;37.422;2023-03-21T15:29:17;10.77;;;4.15;;
28802;SDS011;15949;55.656;37.422;2023-03-21T15:34:27;10.68;;;4.93;;
28802;SDS011;15949;55.656;37.422;2023-03-21T15:39:34;10.82;;;4.60;;
28802;SDS011;15949;55.656;37.422;2023-03-21T15:44:43;7.72;;;5.00;;
28802;SDS011;15949;55.656;37.422;2023-03-21T15:49:53;8.30;;;4.93;;
28802;SDS011;15949;55.656;37.422;2023-03-21T15:55:00;10.02;;;3.95;;
28802;SDS011;15949;55.656;37.422;2023-03-21T16:00:13;8.45;;;4.30;;
28802;SDS011;15949;55.656;37.422;2023-03-21T16:05:29;11.35;;;4.68;;
28802;SDS011;15949;55.656;37.422;2023-03-21T16:10:36;8.68;;;4.57;;
28802;SDS011;15949;55.656;37.422;2023-03-21T16:15:42;8.52;;;4.60;;
28802;SDS011;15949;55.656;37.422;2023-03-21T16:20:48;8.73;;;4.82;;
28802;SDS011;15949;55.656;37.422;2023-03-21T16:25:54;8.13;;;4.40;;
28802;SDS011;15949;55.656;37.422;2023-03-21T16:31:02;9.45;;;4.78;;
28802;SDS011;15949;55.656;37.422;2023-03-21T16:36:11;8.07;;;4.40;;
28802;SDS011;15949;55.656;37.422;2023-03-21T16:41:23;6.95;;;4.20;;
28802;SDS011;15949;55.656;37.422;2023-03-21T16:46:30;7.97;;;4.40;;
28802;SDS011;15949;55.656;37.422;2023-03-21T16:51:36;7.32;;;4.55;;
28802;SDS011;15949;55.656;37.422;2023-03-21T16:56:43;7.05;;;4.30;;
28802;SDS011;15949;55.656;37.422;2023-03-21T17:01:50;8.23;;;4.53;;
28802;SDS011;15949;55.656;37.422;2023-03-21T17:06:56;9.20;;;4.75;;
28802;SDS011;15949;55.656;37.422;2023-03-21T17:12:02;9.70;;;5.43;;
28802;SDS011;15949;55.656;37.422;2023-03-21T17:17:11;10.10;;;6.30;;
28802;SDS011;15949;55.656;37.422;2023-03-21T17:22:17;8.95;;;6.13;;
28802;SDS011;15949;55.656;37.422;2023-03-21T17:27:23;10.73;;;6.30;;
28802;SDS011;15949;55.656;37.422;2023-03-21T17:32:29;13.13;;;7.50;;
28802;SDS011;15949;55.656;37.422;2023-03-21T17:37:34;14.05;;;8.80;;
28802;SDS011;15949;55.656;37.422;2023-03-21T17:42:42;18.48;;;11.15;;
28802;SDS011;15949;55.656;37.422;2023-03-21T17:47:48;18.45;;;12.90;;
28802;SDS011;15949;55.656;37.422;2023-03-21T17:52:54;22.75;;;15.07;;
28802;SDS011;15949;55.656;37.422;2023-03-21T17:58:02;24.08;;;15.77;;
28802;SDS011;15949;55.656;37.422;2023-03-21T18:03:10;24.05;;;15.88;;
28802;SDS011;15949;55.656;37.422;2023-03-21T18:08:16;23.85;;;16.10;;
28802;SDS011;15949;55.656;37.422;2023-03-21T18:13:22;25.48;;;17.40;;
28802;SDS011;15949;55.656;37.422;2023-03-21T18:18:27;27.60;;;19.05;;
28802;SDS011;15949;55.656;37.422;2023-03-21T18:23:33;30.65;;;20.63;;
28802;SDS011;15949;55.656;37.422;2023-03-21T18:28:39;34.75;;;21.90;;
28802;SDS011;15949;55.656;37.422;2023-03-21T18:33:46;33.15;;;21.20;;
28802;SDS011;15949;55.656;37.422;2023-03-21T18:38:52;36.75;;;22.67;;
28802;SDS011;15949;55.656;37.422;2023-03-21T18:44:00;34.58;;;22.40;;
28802;SDS011;15949;55.656;37.422;2023-03-21T18:49:06;38.58;;;24.27;;
28802;SDS011;15949;55.656;37.422;2023-03-21T18:54:11;42.95;;;27.70;;
28802;SDS011;15949;55.656;37.422;2023-03-21T18:59:18;35.28;;;24.25;;
28802;SDS011;15949;55.656;37.422;2023-03-21T19:04:26;34.22;;;23.75;;
28802;SDS011;15949;55.656;37.422;2023-03-21T19:09:32;36.47;;;24.02;;
28802;SDS011;15949;55.656;37.422;2023-03-21T19:14:38;33.88;;;22.48;;
28802;SDS011;15949;55.656;37.422;2023-03-21T19:19:44;33.50;;;22.23;;
28802;SDS011;15949;55.656;37.422;2023-03-21T19:24:50;36.67;;;23.92;;
28802;SDS011;15949;55.656;37.422;2023-03-21T19:29:57;36.42;;;24.05;;
28802;SDS011;15949;55.656;37.422;2023-03-21T19:35:05;33.25;;;22.63;;
28802;SDS011;15949;55.656;37.422;2023-03-21T19:40:11;37.53;;;23.15;;
28802;SDS011;15949;55.656;37.422;2023-03-21T19:45:17;32.35;;;22.30;;
28802;SDS011;15949;55.656;37.422;2023-03-21T19:50:23;31.88;;;20.17;;
28802;SDS011;15949;55.656;37.422;2023-03-21T19:55:33;31.08;;;20.02;;
28802;SDS011;15949;55.656;37.422;2023-03-21T20:00:38;31.48;;;20.48;;
28802;SDS011;15949;55.656;37.422;2023-03-21T20:05:44;30.65;;;20.63;;
28802;SDS011;15949;55.656;37.422;2023-03-21T20:10:50;35.90;;;21.60;;
28802;SDS011;15949;55.656;37.422;2023-03-21T20:15:55;31.10;;;20.80;;
28802;SDS011;15949;55.656;37.422;2023-03-21T20:21:01;31.98;;;20.80;;
28802;SDS011;15949;55.656;37.422;2023-03-21T20:26:07;30.63;;;19.60;;
28802;SDS011;15949;55.656;37.422;2023-03-21T20:31:14;27.95;;;18.38;;
28802;SDS011;15949;55.656;37.422;2023-03-21T20:36:20;33.53;;;19.88;;
28802;SDS011;15949;55.656;37.422;2023-03-21T20:41:28;29.58;;;18.60;;
28802;SDS011;15949;55.656;37.422;2023-03-21T20:46:33;25.48;;;16.98;;
28802;SDS011;15949;55.656;37.422;2023-03-21T20:51:39;26.15;;;16.48;;
28802;SDS011;15949;55.656;37.422;2023-03-21T20:56:46;26.70;;;16.95;;
28802;SDS011;15949;55.656;37.422;2023-03-21T21:01:52;26.88;;;16.88;;
28802;SDS011;15949;55.656;37.422;2023-03-21T21:06:57;25.67;;;16.48;;
28802;SDS011;15949;55.656;37.422;2023-03-21T21:12:03;25.00;;;15.82;;
28802;SDS011;15949;55.656;37.422;2023-03-21T21:17:09;25.55;;;16.20;;
28802;SDS011;15949;55.656;37.422;2023-03-21T21:22:15;23.70;;;15.30;;
28802;SDS011;15949;55.656;37.422;2023-03-21T21:27:21;21.95;;;14.05;;
28802;SDS011;15949;55.656;37.422;2023-03-21T21:32:27;20.08;;;14.10;;
28802;SDS011;15949;55.656;37.422;2023-03-21T21:37:34;21.83;;;13.88;;
28802;SDS011;15949;55.656;37.422;2023-03-21T21:42:40;19.48;;;12.65;;
28802;SDS011;15949;55.656;37.422;2023-03-21T21:47:47;26.20;;;16.60;;
28802;SDS011;15949;55.656;37.422;2023-03-21T21:52:53;21.92;;;14.52;;
28802;SDS011;15949;55.656;37.422;2023-03-21T21:57:59;21.00;;;14.52;;
28802;SDS011;15949;55.656;37.422;2023-03-21T22:03:06;22.45;;;14.52;;
28802;SDS011;15949;55.656;37.422;2023-03-21T22:08:13;20.33;;;13.73;;
28802;SDS011;15949;55.656;37.422;2023-03-21T22:13:19;22.00;;;13.50;;
28802;SDS011;15949;55.656;37.422;2023-03-21T22:18:24;25.88;;;15.52;;
28802;SDS011;15949;55.656;37.422;2023-03-21T22:23:30;19.13;;;13.00;;
28802;SDS011;15949;55.656;37.422;2023-03-21T22:28:36;20.67;;;13.10;;
28802;SDS011;15949;55.656;37.422;2023-03-21T22:33:43;19.95;;;13.15;;
28802;SDS011;15949;55.656;37.422;2023-03-21T22:38:49;19.27;;;12.02;;
28802;SDS011;15949;55.656;37.422;2023-03-21T22:43:55;22.13;;;13.02;;
28802;SDS011;15949;55.656;37.422;2023-03-21T22:49:01;21.63;;;15.30;;
28802;SDS011;15949;55.656;37.422;2023-03-21T22:54:08;19.23;;;12.32;;
28802;SDS011;15949;55.656;37.422;2023-03-21T22:59:14;19.50;;;12.10;;
28802;SDS011;15949;55.656;37.422;2023-03-21T23:04:20;19.38;;;11.60;;
28802;SDS011;15949;55.656;37.422;2023-03-21T23:09:26;20.23;;;12.52;;
28802;SDS011;15949;55.656;37.422;2023-03-21T23:14:31;20.55;;;12.00;;
28802;SDS011;15949;55.656;37.422;2023-03-21T23:19:37;22.75;;;14.82;;
28802;SDS011;15949;55.656;37.422;2023-03-21T23:24:43;21.35;;;13.27;;
28802;SDS011;15949;55.656;37.422;2023-03-21T23:29:49;21.58;;;12.95;;
28802;SDS011;15949;55.656;37.422;2023-03-21T23:34:55;22.05;;;13.60;;
28802;SDS011;15949;55.656;37.422;2023-03-21T23:40:01;23.08;;;13.85;;
28802;SDS011;15949;55.656;37.422;2023-03-21T23:45:10;22.07;;;13.77;;
28802;SDS011;15949;55.656;37.422;2023-03-21T23:50:16;21.38;;;12.55;;
28802;SDS011;15949;55.656;37.422;2023-03-21T23:55:21;21.20;;;13.63;;
